Pagrindinis puslapis
METAR-TAF:

METAR-TAF

Oro uostai :

Thule, Grenlandija

platuma: 76-32N, ilguma: 068-42W, Aukštis: 77 m

Dabartinis oras

Ataskaita buvo paskelbta 35 minutes, ne 03:56 UTC
Vėjas 4 kt iš Šiaurės Vakarų
Temperatūra -19°C
Drėgmė 84%
Slėgis 991 hPa
Matomumas 10 km arba daugiau
Giedras dangus

METAR: BGTL 170356Z AUTO 31004KT 9999 CLR M19/M21 A2926 RMK AO2 SLP900 T11881207 411521246 TSNO $

Laikas: 00:31 (04:31 UTC)


TAF: trūkstamas

Orai ataskaitas ir orų prognozės (METAR, TAF).

turimą stotys yra geltonos ir raudonos taškus žemėlapyje.

Perkelti pele per norėdami pamatyti stoties vardą.

Tada spustelėkite, norėdami matyti oro stebėjimo ir prognozės.

Norėdami pakeisti žemėlapį: spustelėkite ant žalios mygtukų su juodo kryžiaus žemyn,; žalią mygtuką su brūkšneliu, jei norite nutolinti; arba žalių rodyklių gretimoms žemėlapius.


METAR-TAF: